Portscatho, United Kingdom
Current Conditions -  °F | °C
As of 11:50 PM on Thursday 27 Nov 2014 (Local Time) from EGDR Reporting Station
Haze Haze  
Wind Chill: 54°   Ceiling: 1200
Heat Index: 54°   Visibility: 6mi
Dew Point: 50°   Wind: 21mph
Humidity: 88%   Direction: 110°ESE
Pressure: 29.32"   Gusts: 33mph
Location:  50.17°N, 4.97°W
Report Text: EGDR 272350Z 11018G29KT 9999 HZ FEW010 BKN012 12/10 Q0993 GRN
Loading
Personal Weather Stations






























Interactive Weather Map New forecast layout! Learn more

10-Day Weather Forecast

Advertisements
Track Severe Weather on mobile